Time;durP1;ratioP1;P1;durP2;ratioP2;P2;SDS_P1;SDS_P2;PMS_P1;PMS_P2;Temp;Humidity;BMP_temperature;BMP_pressure;BME280_temperature;BME280_humidity;BME280_pressure;Samples;Min_cycle;Max_cycle;Signal;HPM_P1;HPM_P2
2022/05/05 00:02:04;;;;;;;;;;;;;;;-145.06;0.00;60892.56;4858037;28;19917;-87
2022/05/05 00:04:43;;;;;;;;;;;;;;;-145.06;0.00;60892.56;4860809;28;19917;-87
2022/05/05 00:07:23;;;;;;;;;;;;;;;-145.06;0.00;60892.56;4860773;28;20279;-88
2022/05/05 00:14:23;;;;;;;;;;;;;;;-145.06;0.00;60892.56;4852983;28;20389;-87
2022/05/05 00:15:59;;;;;;;;;;;;;;;-145.06;0.00;60892.56;4871833;28;19916;-88
2022/05/05 00:18:38;;;;;;;;;;;;;;;-145.06;0.00;60892.56;4868801;28;19956;-88
2022/05/05 00:21:17;;;;;;;;;;;;;;;-145.06;0.00;60892.56;4870873;28;19917;-87
2022/05/05 00:23:56;;;;;;;;;;;;;;;-145.06;0.00;60892.56;4856937;28;20362;-87
2022/05/05 00:26:35;;;;;;;;;;;;;;;-145.06;0.00;60892.56;4872647;28;19987;-88
2022/05/05 00:29:15;;;;;;;;;;;;;;;-145.06;0.00;60892.56;4856651;28;19926;-86
2022/05/05 00:31:54;;;;;;;;;;;;;;;-145.06;0.00;60892.56;4872286;28;19913;-88
2022/05/05 00:34:33;;;;;;;;;;;;;;;-145.06;0.00;60892.56;4858728;28;19925;-88
2022/05/05 00:37:12;;;;;;;;;;;;;;;-145.06;0.00;60892.56;4862632;28;19917;-88
2022/05/05 00:39:51;;;;;;;;;;;;;;;-145.06;0.00;60892.56;4866593;28;19917;-88
2022/05/05 00:42:30;;;;;;;;;;;;;;;-145.06;0.00;60892.56;4864236;28;20000;-88
2022/05/05 00:45:09;;;;;;;;;;;;;;;-145.06;0.00;60892.56;4858693;28;19921;-88
2022/05/05 00:47:49;;;;;;;;;;;;;;;-145.06;0.00;60892.56;4870169;28;19925;-88
2022/05/05 00:50:28;;;;;;;;;;;;;;;-145.06;0.00;60892.56;4861328;28;19921;-89
2022/05/05 00:53:07;;;;;;;;;;;;;;;-145.06;0.00;60892.56;4847121;28;19917;-88
2022/05/05 00:55:47;;;;;;;;;;;;;;;-145.06;0.00;60892.56;4863208;28;19917;-87
2022/05/05 00:58:27;;;;;;;;;;;;;;;-145.06;0.00;60892.56;4851994;28;20007;-88
2022/05/05 01:01:06;;;;;;;;;;;;;;;-145.06;0.00;60892.56;4847393;28;20476;-87
2022/05/05 07:12:17;;;;;;;;;;;;;;;-145.06;0.00;60892.56;4856593;28;19925;-89
2022/05/05 07:14:58;;;;;;;;;;;;;;;-145.06;0.00;60892.56;4853096;28;19921;-89
2022/05/05 07:17:37;;;;;;;;;;;;;;;-145.06;0.00;60892.56;4860758;28;19918;-90
2022/05/05 07:20:16;;;;;;;;;;;;;;;-145.06;0.00;60892.56;4858642;28;19913;-87
2022/05/05 07:22:56;;;;;;;;;;;;;;;-145.06;0.00;60892.56;4865428;28;20004;-87
2022/05/05 07:25:35;;;;;;;;;;;;;;;-145.06;0.00;60892.56;4858792;28;19917;-86
2022/05/05 07:28:15;;;;;;;;;;;;;;;-145.06;0.00;60892.56;4864615;28;20011;-87
2022/05/05 07:30:54;;;;;;;;;;;;;;;-145.06;0.00;60892.56;4863540;28;19922;-88
2022/05/05 07:33:35;;;;;;;;;;;;;;;-145.06;0.00;60892.56;4851227;28;19948;-86
2022/05/05 07:36:14;;;;;;;;;;;;;;;-145.06;0.00;60892.56;4870519;28;19925;-87
2022/05/05 07:38:53;;;;;;;;;;;;;;;-145.06;0.00;60892.56;4867867;28;19920;-86
2022/05/05 07:41:32;;;;;;;;;;;;;;;15.88;0.00;60892.56;4851751;28;19921;-87
2022/05/05 07:44:11;;;;;;;;;;;;;;;14.58;0.00;60892.56;4862047;28;20012;-87
2022/05/05 07:46:50;;;;;;;;;;;;;;;14.44;0.00;60892.56;4862505;28;19921;-87
2022/05/05 07:49:29;;;;;;;;;;;;;;;14.53;0.00;60892.56;4852941;28;19921;-87
2022/05/05 07:52:08;;;;;;;;;;;;;;;-145.06;0.00;60892.56;4867958;28;19917;-87
2022/05/05 07:54:47;;;;;;;;;;;;;;;-145.06;0.00;60892.56;4862057;28;19916;-87
2022/05/05 07:57:26;;;;;;;;;;;;;;;-145.06;0.00;60892.56;4867845;28;19917;-87
2022/05/05 08:00:05;;;;;;;;;;;;;;;-145.06;0.00;60892.56;4863592;28;19968;-87
2022/05/05 08:02:44;;;;;;;;;;;;;;;-145.06;0.00;60892.56;4868586;28;20003;-87
2022/05/05 08:05:23;;;;;;;;;;;;;;;-145.06;0.00;60892.56;4858399;28;19921;-87
2022/05/05 08:08:02;;;;;;;;;;;;;;;-145.06;0.00;60892.56;4852911;28;20008;-87
2022/05/05 08:10:41;;;;;;;;;;;;;;;-145.06;0.00;60892.56;4866998;28;19929;-88
2022/05/05 08:13:20;;;;;;;;;;;;;;;-145.06;0.00;60892.56;4864073;28;19913;-87
2022/05/05 08:15:59;;;;;;;;;;;;;;;-145.06;0.00;60892.56;4849651;28;19917;-88
2022/05/05 08:18:38;;;;;;;;;;;;;;;-145.06;0.00;60892.56;4867937;28;19913;-87
2022/05/05 08:21:17;;;;;;;;;;;;;;;-145.06;0.00;60892.56;4866000;28;19988;-88
2022/05/05 08:29:52;;;;;;;;;;;;;;;-145.06;0.00;60892.56;4850756;28;19917;-88
2022/05/05 08:32:31;;;;;;;;;;;;;;;187.52;0.00;60892.56;4866865;28;19913;-88
2022/05/05 08:35:10;;;;;;;;;;;;;;;-145.06;0.00;60892.56;4854856;28;19953;-87
2022/05/05 08:37:50;;;;;;;;;;;;;;;-145.06;0.00;60892.56;4868248;28;19929;-87
2022/05/05 08:40:33;;;;;;;;;;;;;;;-145.06;0.00;60892.56;4867902;28;20139;-88
2022/05/05 08:43:12;;;;;;;;;;;;;;;-145.06;0.00;60892.56;4867189;28;19917;-87
2022/05/05 08:45:53;;;;;;;;;;;;;;;-145.06;0.00;60892.56;4860319;28;19913;-88
2022/05/05 08:48:34;;;;;;;;;;;;;;;-145.06;0.00;60892.56;4865425;28;19913;-87
2022/05/05 08:51:15;;;;;;;;;;;;;;;-145.06;0.00;60892.56;4866556;28;19968;-87
2022/05/05 08:53:56;;;;;;;;;;;;;;;-145.06;0.00;60892.56;4865079;28;19918;-87
2022/05/05 08:56:35;;;;;;;;;;;;;;;-145.06;0.00;60892.56;4869052;28;19913;-86
2022/05/05 08:59:15;;;;;;;;;;;;;;;-145.06;0.00;60892.56;4867053;28;19925;-86
2022/05/05 09:01:54;;;;;;;;;;;;;;;-145.06;0.00;60892.56;4866900;28;19913;-88
2022/05/05 09:04:33;;;;;;;;;;;;;;;-145.06;0.00;60892.56;4856498;28;19921;-87
2022/05/05 09:07:12;;;;;;;;;;;;;;;-145.06;0.00;60892.56;4862104;28;19913;-87
2022/05/05 09:09:51;;;;;;;;;;;;;;;-145.06;0.00;60892.56;4863129;28;19921;-87
2022/05/05 09:12:32;;;;;;;;;;;;;;;-145.06;0.00;60892.56;4851460;28;19913;-88
2022/05/05 09:15:11;;;;;;;;;;;;;;;-145.06;0.00;60892.56;4866865;28;19917;-87
2022/05/05 09:17:51;;;;;;;;;;;;;;;16.89;0.00;60892.56;4860722;28;19990;-88
2022/05/05 09:20:36;;;;;;;;;;;;;;;16.97;0.00;60892.56;4856259;28;19917;-87
2022/05/05 09:23:29;;;;;;;;;;;;;;;17.04;0.00;60892.56;4863633;28;20378;-87
2022/05/05 09:26:08;;;;;;;;;;;;;;;-145.06;0.00;60892.56;4858333;28;20430;-87
2022/05/05 09:28:49;;;;;;;;;;;;;;;-145.06;0.00;60892.56;4865051;28;20362;-87
2022/05/05 09:31:28;;;;;;;;;;;;;;;-145.06;0.00;60892.56;4864513;28;19949;-87
2022/05/05 09:34:16;;;;;;;;;;;;;;;-145.06;0.00;60892.56;4868808;28;19917;-87
2022/05/05 09:36:55;;;;;;;;;;;;;;;-145.06;0.00;60892.56;4861974;28;19917;-87
2022/05/05 09:39:34;;;;;;;;;;;;;;;-145.06;0.00;60892.56;4848219;28;19960;-87
2022/05/05 09:42:32;;;;;;;;;;;;;;;-145.06;0.00;60892.56;4865460;28;19913;-87
2022/05/05 09:45:18;;;;;;;;;;;;;;;-145.06;0.00;60892.56;4861650;28;19921;-87
2022/05/05 09:47:58;;;;;;;;;;;;;;;-145.06;0.00;60892.56;4860063;28;20012;-87
2022/05/05 09:50:38;;;;;;;;;;;;;;;-145.06;0.00;60892.56;4862145;28;19917;-88
2022/05/05 09:59:17;;;;;;;;;;;;;;;-145.06;0.00;60892.56;4853742;28;19925;-87
2022/05/05 10:02:01;;;;;;;;;;;;;;;-145.06;0.00;60892.56;4865206;28;19917;-88
2022/05/05 10:04:40;;;;;;;;;;;;;;;-145.06;0.00;60892.56;4860965;28;20248;-88
2022/05/05 10:07:20;;;;;;;;;;;;;;;-145.06;0.00;60892.56;4863997;28;19913;-87
2022/05/05 10:09:59;;;;;;;;;;;;;;;-145.06;0.00;60892.56;4864391;28;19921;-88
2022/05/05 10:12:39;;;;;;;;;;;;;;;-145.06;0.00;60892.56;4866378;28;19913;-87
2022/05/05 10:15:18;;;;;;;;;;;;;;;-145.06;0.00;60892.56;4864001;28;19917;-87
2022/05/05 10:18:02;;;;;;;;;;;;;;;-145.06;0.00;60892.56;4866145;28;19913;-87
2022/05/05 10:20:41;;;;;;;;;;;;;;;-145.06;0.00;60892.56;4866053;28;19913;-88
2022/05/05 10:23:28;;;;;;;;;;;;;;;-145.06;0.00;60892.56;4858114;28;19940;-87
2022/05/05 10:26:08;;;;;;;;;;;;;;;-145.06;0.00;60892.56;4864905;28;19913;-86
2022/05/05 10:28:50;;;;;;;;;;;;;;;-145.06;0.00;60892.56;4869698;28;19917;-86
2022/05/05 10:31:34;;;;;;;;;;;;;;;-145.06;0.00;60892.56;4857064;28;19921;-87
2022/05/05 10:34:14;;;;;;;;;;;;;;;-145.06;0.00;60892.56;4866615;28;20003;-87
2022/05/05 10:36:57;;;;;;;;;;;;;;;-145.06;0.00;60892.56;4856640;28;19913;-87
2022/05/05 10:39:56;;;;;;;;;;;;;;;-145.06;0.00;60892.56;4870446;28;19925;-88
2022/05/05 10:42:45;;;;;;;;;;;;;;;-145.06;0.00;60892.56;4854449;28;19917;-87
2022/05/05 10:45:27;;;;;;;;;;;;;;;-145.06;0.00;60892.56;4853022;28;19965;-87
2022/05/05 10:48:06;;;;;;;;;;;;;;;-145.06;0.00;60892.56;4856622;28;20266;-88
2022/05/05 10:53:31;;;;;;;;;;;;;;;19.78;0.00;60892.56;4860207;28;19929;-88
2022/05/05 10:56:19;;;;;;;;;;;;;;;19.64;0.00;60892.56;4870213;28;19917;-87
2022/05/05 10:59:04;;;;;;;;;;;;;;;19.72;0.00;60892.56;4864788;28;19921;-87
2022/05/05 11:01:46;;;;;;;;;;;;;;;19.70;0.00;60892.56;4866478;28;20315;-89
2022/05/05 11:04:29;;;;;;;;;;;;;;;19.66;0.00;60892.56;4869952;28;19917;-88
2022/05/05 11:07:36;;;;;;;;;;;;;;;19.67;0.00;60892.56;4868865;28;19913;-88
2022/05/05 11:10:42;;;;;;;;;;;;;;;21.08;0.00;60892.56;4851535;28;20346;-87
2022/05/05 11:13:40;;;;;;;;;;;;;;;-145.06;0.00;60892.56;4864845;28;19913;-88
2022/05/05 11:22:28;;;;;;;;;;;;;;;-145.06;0.00;60892.56;4861327;28;19921;-89
2022/05/05 11:25:07;;;;;;;;;;;;;;;-145.06;0.00;60892.56;4870309;28;19913;-87
2022/05/05 11:27:54;;;;;;;;;;;;;;;-145.06;0.00;60892.56;4866227;28;19953;-88
2022/05/05 11:30:34;;;;;;;;;;;;;;;-145.06;0.00;60892.56;4868273;28;20410;-87
2022/05/05 11:33:13;;;;;;;;;;;;;;;-145.06;0.00;60892.56;4867317;28;19917;-87
2022/05/05 11:35:52;;;;;;;;;;;;;;;-145.06;0.00;60892.56;4863604;28;19953;-87
2022/05/05 11:38:31;;;;;;;;;;;;;;;-145.06;0.00;60892.56;4868288;28;19956;-87
2022/05/05 11:41:10;;;;;;;;;;;;;;;-145.06;0.00;60892.56;4866895;28;19913;-87
2022/05/05 11:46:47;;;;;;;;;;;;;;;-145.06;0.00;60892.56;4854417;28;19917;-87
2022/05/05 11:49:32;;;;;;;;;;;;;;;-145.06;0.00;60892.56;4862165;28;19925;-88
2022/05/05 11:52:15;;;;;;;;;;;;;;;-145.06;0.00;60892.56;4858309;28;19917;-88
2022/05/05 11:54:55;;;;;;;;;;;;;;;-145.06;0.00;60892.56;4853893;28;19922;-88
2022/05/05 11:57:36;;;;;;;;;;;;;;;-145.06;0.00;60892.56;4857818;28;20591;-88
2022/05/05 12:03:18;;;;;;;;;;;;;;;-145.06;0.00;60892.56;4863293;28;19925;-89
2022/05/05 12:05:57;;;;;;;;;;;;;;;-145.06;0.00;60892.56;4862031;28;20537;-88
2022/05/05 12:08:37;;;;;;;;;;;;;;;-145.06;0.00;60892.56;4855440;28;20011;-88
2022/05/05 12:11:15;;;;;;;;;;;;;;;-145.06;0.00;60892.56;4848161;28;20382;-88
2022/05/05 12:14:03;;;;;;;;;;;;;;;-145.06;0.00;60892.56;4852326;28;20012;-88
2022/05/05 12:16:43;;;;;;;;;;;;;;;-145.06;0.00;60892.56;4866429;28;19917;-88
2022/05/05 12:19:22;;;;;;;;;;;;;;;-145.06;0.00;60892.56;4864982;28;19917;-87
2022/05/05 12:22:01;;;;;;;;;;;;;;;-145.06;0.00;60892.56;4850057;28;19925;-87
2022/05/05 12:24:46;;;;;;;;;;;;;;;-145.06;0.00;60892.56;4852571;28;19913;-86
2022/05/05 12:27:26;;;;;;;;;;;;;;;-145.06;0.00;60892.56;4868133;28;19921;-85
2022/05/05 12:30:05;;;;;;;;;;;;;;;-145.06;0.00;60892.56;4852078;28;20458;-87
2022/05/05 12:32:50;;;;;;;;;;;;;;;-145.06;0.00;60892.56;4858620;28;19999;-86
2022/05/05 12:35:30;;;;;;;;;;;;;;;-145.06;0.00;60892.56;4864339;28;19917;-87
2022/05/05 12:38:11;;;;;;;;;;;;;;;-145.06;0.00;60892.56;4863342;28;19913;-88
2022/05/05 12:41:05;;;;;;;;;;;;;;;-145.06;0.00;60892.56;4863073;28;19920;-88
2022/05/05 12:43:44;;;;;;;;;;;;;;;-145.06;0.00;60892.56;4866893;28;19913;-87
2022/05/05 12:46:23;;;;;;;;;;;;;;;-145.06;0.00;60892.56;4853431;28;19917;-87
2022/05/05 12:49:02;;;;;;;;;;;;;;;-145.06;0.00;60892.56;4860099;28;19917;-87
2022/05/05 12:51:41;;;;;;;;;;;;;;;-145.06;0.00;60892.56;4854841;28;19921;-87
2022/05/05 13:00:16;;;;;;;;;;;;;;;-145.06;0.00;60892.56;4851036;28;19925;-88
2022/05/05 13:02:56;;;;;;;;;;;;;;;-145.06;0.00;60892.56;4853577;28;19921;-87
2022/05/05 13:05:36;;;;;;;;;;;;;;;-145.06;0.00;60892.56;4869284;28;19917;-87
2022/05/05 13:08:15;;;;;;;;;;;;;;;-145.06;0.00;60892.56;4863626;28;20366;-87
2022/05/05 13:10:54;;;;;;;;;;;;;;;-145.06;0.00;60892.56;4861217;28;19921;-88
2022/05/05 13:13:33;;;;;;;;;;;;;;;-145.06;0.00;60892.56;4861085;28;19913;-87
2022/05/05 13:16:12;;;;;;;;;;;;;;;-145.06;0.00;60892.56;4863657;28;19921;-87
2022/05/05 13:18:51;;;;;;;;;;;;;;;-145.06;0.00;60892.56;4863695;28;20306;-89
2022/05/05 13:21:36;;;;;;;;;;;;;;;-145.06;0.00;60892.56;4845435;28;19949;-88
2022/05/05 13:24:15;;;;;;;;;;;;;;;-145.06;0.00;60892.56;4858616;28;20415;-89
2022/05/05 13:26:54;;;;;;;;;;;;;;;-145.06;0.00;60892.56;4864975;28;20343;-88
2022/05/05 13:29:33;;;;;;;;;;;;;;;-145.06;0.00;60892.56;4866635;28;19965;-87
2022/05/05 13:32:12;;;;;;;;;;;;;;;-145.06;0.00;60892.56;4866416;28;20302;-87
2022/05/05 13:34:53;;;;;;;;;;;;;;;-145.06;0.00;60892.56;4865172;28;20863;-87
2022/05/05 13:37:32;;;;;;;;;;;;;;;-145.06;0.00;60892.56;4866272;28;19917;-87
2022/05/05 13:40:10;;;;;;;;;;;;;;;-145.06;0.00;60892.56;4866369;28;20255;-86
2022/05/05 13:42:49;;;;;;;;;;;;;;;-145.06;0.00;60892.56;4864953;28;19956;-88
2022/05/05 13:45:28;;;;;;;;;;;;;;;-145.06;0.00;60892.56;4863493;28;19917;-87
2022/05/05 13:48:08;;;;;;;;;;;;;;;-145.06;0.00;60892.56;4855631;28;19921;-88
2022/05/05 13:50:46;;;;;;;;;;;;;;;-145.06;0.00;60892.56;4852400;28;19925;-87
2022/05/05 13:53:25;;;;;;;;;;;;;;;-145.06;0.00;60892.56;4868220;28;20259;-87
2022/05/05 13:56:04;;;;;;;;;;;;;;;-145.06;0.00;60892.56;4863534;28;19921;-87
2022/05/05 13:58:43;;;;;;;;;;;;;;;-145.06;0.00;60892.56;4855929;28;19917;-87
2022/05/05 14:01:22;;;;;;;;;;;;;;;-145.06;0.00;60892.56;4864838;28;20004;-86
2022/05/05 14:04:01;;;;;;;;;;;;;;;-145.06;0.00;60892.56;4868394;28;20256;-87
2022/05/05 14:06:40;;;;;;;;;;;;;;;-145.06;0.00;60892.56;4855586;28;20426;-87
2022/05/05 14:12:17;;;;;;;;;;;;;;;-145.06;0.00;60892.56;4856877;28;19925;-86
2022/05/05 14:14:56;;;;;;;;;;;;;;;-145.06;0.00;60892.56;4865253;28;19925;-87
2022/05/05 14:17:35;;;;;;;;;;;;;;;-145.06;0.00;60892.56;4865509;28;19917;-87
2022/05/05 14:20:14;;;;;;;;;;;;;;;-145.06;0.00;60892.56;4854726;28;19921;-87
2022/05/05 14:22:53;;;;;;;;;;;;;;;-145.06;0.00;60892.56;4869958;28;19913;-87
2022/05/05 14:25:32;;;;;;;;;;;;;;;-145.06;0.00;60892.56;4870783;28;21017;-87
2022/05/05 14:28:12;;;;;;;;;;;;;;;-145.06;0.00;60892.56;4862153;28;20263;-88
2022/05/05 14:30:53;;;;;;;;;;;;;;;-145.06;0.00;60892.56;4852312;28;19921;-86
2022/05/05 14:33:32;;;;;;;;;;;;;;;-145.06;0.00;60892.56;4870786;28;20537;-85
2022/05/05 14:36:11;;;;;;;;;;;;;;;-145.06;0.00;60892.56;4868412;28;19917;-86
2022/05/05 14:38:49;;;;;;;;;;;;;;;-145.06;0.00;60892.56;4869788;28;20200;-88
2022/05/05 14:41:28;;;;;;;;;;;;;;;-145.06;0.00;60892.56;4855548;28;19956;-87
2022/05/05 14:44:08;;;;;;;;;;;;;;;-145.06;0.00;60892.56;4865280;28;19914;-87
2022/05/05 14:46:48;;;;;;;;;;;;;;;-145.06;0.00;60892.56;4855472;28;19917;-87
2022/05/05 14:49:27;;;;;;;;;;;;;;;-145.06;0.00;60892.56;4866115;28;19917;-87
2022/05/05 14:52:06;;;;;;;;;;;;;;;-145.06;0.00;60892.56;4862144;28;19972;-87
2022/05/05 14:54:45;;;;;;;;;;;;;;;-145.06;0.00;60892.56;4871720;28;19917;-85
2022/05/05 14:57:25;;;;;;;;;;;;;;;-145.06;0.00;60892.56;4867737;28;19913;-87
2022/05/05 15:00:06;;;;;;;;;;;;;;;-145.06;0.00;60892.56;4870713;28;20253;-87
2022/05/05 15:02:44;;;;;;;;;;;;;;;-145.06;0.00;60892.56;4870642;28;19921;-87
2022/05/05 15:05:23;;;;;;;;;;;;;;;-145.06;0.00;60892.56;4853672;28;19917;-87
2022/05/05 15:08:03;;;;;;;;;;;;;;;-145.06;0.00;60892.56;4868424;28;19917;-87
2022/05/05 15:10:42;;;;;;;;;;;;;;;-145.06;0.00;60892.56;4856567;28;19956;-88
2022/05/05 15:13:22;;;;;;;;;;;;;;;-145.06;0.00;60892.56;4864091;28;20355;-87
2022/05/05 15:16:01;;;;;;;;;;;;;;;-145.06;0.00;60892.56;4856929;28;19925;-86
2022/05/05 15:18:40;;;;;;;;;;;;;;;-145.06;0.00;60892.56;4855240;28;20515;-87
2022/05/05 15:21:19;;;;;;;;;;;;;;;-145.06;0.00;60892.56;4856357;28;19917;-87
2022/05/05 15:23:58;;;;;;;;;;;;;;;-145.06;0.00;60892.56;4861243;28;20759;-87
2022/05/05 15:26:37;;;;;;;;;;;;;;;-145.06;0.00;60892.56;4854808;28;19913;-86
2022/05/05 15:29:16;;;;;;;;;;;;;;;-145.06;0.00;60892.56;4859926;28;19917;-87
2022/05/05 15:31:55;;;;;;;;;;;;;;;-145.06;0.00;60892.56;4868885;28;19952;-87
2022/05/05 15:34:34;;;;;;;;;;;;;;;-145.06;0.00;60892.56;4869318;28;19949;-87
2022/05/05 15:37:13;;;;;;;;;;;;;;;-145.06;0.00;60892.56;4855804;28;19917;-87
2022/05/05 15:39:53;;;;;;;;;;;;;;;-145.06;0.00;60892.56;4856374;28;20442;-87
2022/05/05 15:42:32;;;;;;;;;;;;;;;-145.06;0.00;60892.56;4862731;28;19913;-87
2022/05/05 15:45:11;;;;;;;;;;;;;;;-145.06;0.00;60892.56;4868556;28;19917;-87
2022/05/05 15:47:51;;;;;;;;;;;;;;;-145.06;0.00;60892.56;4861040;28;19956;-87
2022/05/05 15:50:30;;;;;;;;;;;;;;;-145.06;0.00;60892.56;4864787;28;19925;-87
2022/05/05 15:53:09;;;;;;;;;;;;;;;-145.06;0.00;60892.56;4857004;28;19925;-86
2022/05/05 15:55:48;;;;;;;;;;;;;;;-145.06;0.00;60892.56;4864013;28;19968;-87
2022/05/05 15:58:27;;;;;;;;;;;;;;;-145.06;0.00;60892.56;4851258;28;19969;-87
2022/05/05 16:01:07;;;;;;;;;;;;;;;21.07;0.00;60892.56;4855521;28;20012;-88
2022/05/05 16:03:46;;;;;;;;;;;;;;;21.02;0.00;60892.56;4857809;28;19921;-87
2022/05/05 16:06:25;;;;;;;;;;;;;;;20.97;0.00;60892.56;4866375;28;19913;-87
2022/05/05 16:09:04;;;;;;;;;;;;;;;21.08;0.00;60892.56;4867372;28;19921;-87
2022/05/05 16:11:43;;;;;;;;;;;;;;;20.99;0.00;60892.56;4864762;28;19922;-87
2022/05/05 16:14:22;;;;;;;;;;;;;;;20.92;0.00;60892.56;4846797;28;19964;-85
2022/05/05 16:17:01;;;;;;;;;;;;;;;20.90;0.00;60892.56;4865328;28;20367;-87
2022/05/05 16:19:40;;;;;;;;;;;;;;;20.87;0.00;60892.56;4851817;28;19968;-88
2022/05/05 16:22:19;;;;;;;;;;;;;;;20.87;0.00;60892.56;4863245;28;19925;-88
2022/05/05 16:30:54;;;;;;;;;;;;;;;-145.06;0.00;60892.56;4851326;28;19964;-88
2022/05/05 16:33:33;;;;;;;;;;;;;;;-145.06;0.00;60892.56;4848768;28;20263;-89
2022/05/05 16:36:12;;;;;;;;;;;;;;;-145.06;0.00;60892.56;4854007;28;19917;-88
2022/05/05 16:38:52;;;;;;;;;;;;;;;-145.06;0.00;60892.56;4856990;28;19917;-88
2022/05/05 16:41:31;;;;;;;;;;;;;;;-145.06;0.00;60892.56;4865506;28;20255;-87
2022/05/05 16:44:10;;;;;;;;;;;;;;;-145.06;0.00;60892.56;4858064;28;19917;-88
2022/05/05 16:46:49;;;;;;;;;;;;;;;-145.06;0.00;60892.56;4866338;28;19920;-88
2022/05/05 16:49:28;;;;;;;;;;;;;;;-145.06;0.00;60892.56;4848520;28;19921;-88
2022/05/05 16:52:07;;;;;;;;;;;;;;;-145.06;0.00;60892.56;4852504;28;19921;-86
2022/05/05 16:54:46;;;;;;;;;;;;;;;-145.06;0.00;60892.56;4857827;28;21478;-86
2022/05/05 16:57:25;;;;;;;;;;;;;;;-145.06;0.00;60892.56;4864539;28;19917;-88
2022/05/05 17:00:05;;;;;;;;;;;;;;;-145.06;0.00;60892.56;4853698;28;19960;-87
2022/05/05 17:02:44;;;;;;;;;;;;;;;-145.06;0.00;60892.56;4864800;28;20387;-88
2022/05/05 17:05:23;;;;;;;;;;;;;;;-145.06;0.00;60892.56;4861792;28;19921;-87
2022/05/05 17:08:02;;;;;;;;;;;;;;;-145.06;0.00;60892.56;4861885;28;19921;-87
2022/05/05 17:10:42;;;;;;;;;;;;;;;-145.06;0.00;60892.56;4860582;28;20027;-88
2022/05/05 17:13:21;;;;;;;;;;;;;;;-145.06;0.00;60892.56;4864763;28;19926;-87
2022/05/05 17:16:00;;;;;;;;;;;;;;;-145.06;0.00;60892.56;4849123;28;19917;-88
2022/05/05 17:18:39;;;;;;;;;;;;;;;21.08;0.00;60892.56;4864259;28;19918;-87
2022/05/05 17:21:17;;;;;;;;;;;;;;;19.76;0.00;60892.56;4848626;28;19956;-87
2022/05/05 17:23:57;;;;;;;;;;;;;;;19.72;0.00;60892.56;4864671;28;19929;-88
2022/05/05 17:26:36;;;;;;;;;;;;;;;19.69;0.00;60892.56;4867263;28;19917;-87
2022/05/05 17:29:15;;;;;;;;;;;;;;;19.67;0.00;60892.56;4846430;28;19917;-88
2022/05/05 17:31:54;;;;;;;;;;;;;;;19.65;0.00;60892.56;4856117;28;19925;-88
2022/05/05 17:34:33;;;;;;;;;;;;;;;19.64;0.00;60892.56;4852674;28;20350;-88
2022/05/05 17:37:12;;;;;;;;;;;;;;;19.62;0.00;60892.56;4862346;28;19921;-86
2022/05/05 17:39:51;;;;;;;;;;;;;;;19.59;0.00;60892.56;4859168;28;19917;-87
2022/05/05 17:42:30;;;;;;;;;;;;;;;19.57;0.00;60892.56;4856241;28;19918;-87
2022/05/05 17:51:07;;;;;;;;;;;;;;;19.48;0.00;60892.56;4851799;28;19925;-87
2022/05/05 17:53:46;;;;;;;;;;;;;;;-145.06;0.00;60892.56;4862456;28;20016;-88
2022/05/05 17:56:25;;;;;;;;;;;;;;;-145.06;0.00;60892.56;4857887;28;20256;-88
2022/05/05 17:59:05;;;;;;;;;;;;;;;-145.06;0.00;60892.56;4863957;28;19917;-87
2022/05/05 18:01:44;;;;;;;;;;;;;;;-145.06;0.00;60892.56;4865597;28;20390;-88
2022/05/05 18:04:23;;;;;;;;;;;;;;;-145.06;0.00;60892.56;4861831;28;19961;-87
2022/05/05 18:07:02;;;;;;;;;;;;;;;-145.06;0.00;60892.56;4854370;28;19929;-87
2022/05/05 18:09:41;;;;;;;;;;;;;;;-145.06;0.00;60892.56;4864117;28;19913;-88
2022/05/05 18:12:22;;;;;;;;;;;;;;;-145.06;0.00;60892.56;4865363;28;19921;-87
2022/05/05 18:15:01;;;;;;;;;;;;;;;-145.06;0.00;60892.56;4866025;28;19925;-87
2022/05/05 18:17:40;;;;;;;;;;;;;;;-145.06;0.00;60892.56;4862904;28;19917;-88
2022/05/05 18:20:21;;;;;;;;;;;;;;;-145.06;0.00;60892.56;4861369;28;19921;-87
2022/05/05 18:23:00;;;;;;;;;;;;;;;-145.06;0.00;60892.56;4849479;28;19917;-87
2022/05/05 18:25:39;;;;;;;;;;;;;;;-145.06;0.00;60892.56;4850758;28;19964;-87
2022/05/05 18:28:18;;;;;;;;;;;;;;;-145.06;0.00;60892.56;4850282;28;19917;-87
2022/05/05 18:30:57;;;;;;;;;;;;;;;-145.06;0.00;60892.56;4851925;28;19925;-87
2022/05/05 18:33:36;;;;;;;;;;;;;;;-145.06;0.00;60892.56;4863361;28;20007;-89
2022/05/05 18:36:15;;;;;;;;;;;;;;;-145.06;0.00;60892.56;4857553;28;19921;-87
2022/05/05 18:38:57;;;;;;;;;;;;;;;-145.06;0.00;60892.56;4870957;28;19924;-88
2022/05/05 18:41:38;;;;;;;;;;;;;;;-145.06;0.00;60892.56;4869263;28;20000;-87
2022/05/05 18:44:16;;;;;;;;;;;;;;;-145.06;0.00;60892.56;4859156;28;19925;-86
2022/05/05 18:46:56;;;;;;;;;;;;;;;-145.06;0.00;60892.56;4854537;28;19921;-87
2022/05/05 18:49:37;;;;;;;;;;;;;;;-145.06;0.00;60892.56;4862163;28;19921;-87
2022/05/05 18:52:16;;;;;;;;;;;;;;;-145.06;0.00;60892.56;4864724;28;19921;-88
2022/05/05 18:54:55;;;;;;;;;;;;;;;-145.06;0.00;60892.56;4864760;28;19921;-87
2022/05/05 18:57:34;;;;;;;;;;;;;;;-145.06;0.00;60892.56;4856798;28;20347;-87
2022/05/05 19:00:14;;;;;;;;;;;;;;;-145.06;0.00;60892.56;4865866;28;19964;-86
2022/05/05 19:02:53;;;;;;;;;;;;;;;-145.06;0.00;60892.56;4863206;28;20355;-88
2022/05/05 19:05:32;;;;;;;;;;;;;;;-145.06;0.00;60892.56;4852780;28;19917;-87
2022/05/05 19:08:11;;;;;;;;;;;;;;;-145.06;0.00;60892.56;4859622;28;20252;-89
2022/05/05 19:10:50;;;;;;;;;;;;;;;18.31;0.00;60892.56;4868956;28;19925;-87
2022/05/05 19:13:29;;;;;;;;;;;;;;;-145.06;0.00;60892.56;4859118;28;19917;-88
2022/05/05 19:16:09;;;;;;;;;;;;;;;-145.06;0.00;60892.56;4855972;28;19925;-88
2022/05/05 19:18:48;;;;;;;;;;;;;;;-145.06;0.00;60892.56;4863280;28;19925;-88
2022/05/05 19:21:27;;;;;;;;;;;;;;;-145.06;0.00;60892.56;4868292;28;19921;-88
2022/05/05 19:24:07;;;;;;;;;;;;;;;-145.06;0.00;60892.56;4866963;28;19964;-87
2022/05/05 19:26:46;;;;;;;;;;;;;;;-145.06;0.00;60892.56;4870088;28;19917;-87
2022/05/05 19:29:25;;;;;;;;;;;;;;;-145.06;0.00;60892.56;4860836;28;19921;-87
2022/05/05 19:32:05;;;;;;;;;;;;;;;-145.06;0.00;60892.56;4856673;28;19925;-88
2022/05/05 19:34:44;;;;;;;;;;;;;;;-145.06;0.00;60892.56;4871087;28;19925;-88
2022/05/05 19:37:23;;;;;;;;;;;;;;;-145.06;0.00;60892.56;4872379;28;21529;-88
2022/05/05 19:40:02;;;;;;;;;;;;;;;-145.06;0.00;60892.56;4871205;28;19925;-88
2022/05/05 19:42:41;;;;;;;;;;;;;;;-145.06;0.00;60892.56;4871968;28;19917;-88
2022/05/05 19:45:20;;;;;;;;;;;;;;;-145.06;0.00;60892.56;4857290;28;20011;-87
2022/05/05 19:47:59;;;;;;;;;;;;;;;-145.06;0.00;60892.56;4869790;28;20012;-89
2022/05/05 19:50:38;;;;;;;;;;;;;;;-145.06;0.00;60892.56;4854856;28;19921;-88
2022/05/05 19:53:17;;;;;;;;;;;;;;;-145.06;0.00;60892.56;4863866;28;19925;-87
2022/05/05 20:01:52;;;;;;;;;;;;;;;-145.06;0.00;60892.56;4853032;28;19921;-89
2022/05/05 20:07:22;;;;;;;;;;;;;;;-145.06;0.00;60892.56;4862446;28;20362;-87
2022/05/05 20:07:31;;;;;;;;;;;;;;;-145.06;0.00;60892.56;4857506;28;19949;-88
2022/05/05 20:10:11;;;;;;;;;;;;;;;-145.06;0.00;60892.56;4860913;28;19933;-86
2022/05/05 20:12:49;;;;;;;;;;;;;;;-145.06;0.00;60892.56;4871039;28;19917;-88
2022/05/05 20:15:29;;;;;;;;;;;;;;;-145.06;0.00;60892.56;4860769;28;19960;-87
2022/05/05 20:18:09;;;;;;;;;;;;;;;-145.06;0.00;60892.56;4867121;28;19917;-88
2022/05/05 20:20:48;;;;;;;;;;;;;;;-145.06;0.00;60892.56;4871029;28;20374;-88
2022/05/05 20:23:27;;;;;;;;;;;;;;;-145.06;0.00;60892.56;4871930;28;19925;-87
2022/05/05 20:26:06;;;;;;;;;;;;;;;-145.06;0.00;60892.56;4858136;28;19925;-87
2022/05/05 20:28:45;;;;;;;;;;;;;;;-145.06;0.00;60892.56;4856472;28;19925;-87
2022/05/05 20:31:24;;;;;;;;;;;;;;;-145.06;0.00;60892.56;4854854;28;19921;-87
2022/05/05 20:34:03;;;;;;;;;;;;;;;-145.06;0.00;60892.56;4862704;28;19946;-87
2022/05/05 20:36:42;;;;;;;;;;;;;;;-145.06;0.00;60892.56;4871032;28;19921;-87
2022/05/05 20:39:21;;;;;;;;;;;;;;;-145.06;0.00;60892.56;4853418;28;19961;-88
2022/05/05 20:42:02;;;;;;;;;;;;;;;-145.06;0.00;60892.56;4867004;28;20346;-86
2022/05/05 20:44:41;;;;;;;;;;;;;;;-145.06;0.00;60892.56;4867171;28;19925;-88
2022/05/05 20:47:19;;;;;;;;;;;;;;;-145.06;0.00;60892.56;4856781;28;20271;-87
2022/05/05 20:49:58;;;;;;;;;;;;;;;-145.06;0.00;60892.56;4858102;28;19921;-88